sensor_id;sensor_type;location;lat;lon;timestamp;P1;durP1;ratioP1;P2;durP2;ratioP2
30970;SDS011;17651;52.262;10.498;2023-05-07T00:00:37;28.33;;;19.42;;
30970;SDS011;17651;52.262;10.498;2023-05-07T00:02:48;29.70;;;20.50;;
30970;SDS011;17651;52.262;10.498;2023-05-07T00:04:59;32.50;;;20.50;;
30970;SDS011;17651;52.262;10.498;2023-05-07T00:07:12;27.65;;;19.33;;
30970;SDS011;17651;52.262;10.498;2023-05-07T00:09:23;27.52;;;19.98;;
30970;SDS011;17651;52.262;10.498;2023-05-07T00:11:34;28.90;;;19.88;;
30970;SDS011;17651;52.262;10.498;2023-05-07T00:13:45;28.55;;;20.20;;
30970;SDS011;17651;52.262;10.498;2023-05-07T00:15:56;29.67;;;20.73;;
30970;SDS011;17651;52.262;10.498;2023-05-07T00:18:07;30.27;;;20.02;;
30970;SDS011;17651;52.262;10.498;2023-05-07T00:20:18;29.55;;;20.52;;
30970;SDS011;17651;52.262;10.498;2023-05-07T00:22:29;31.27;;;19.35;;
30970;SDS011;17651;52.262;10.498;2023-05-07T00:24:41;29.25;;;20.10;;
30970;SDS011;17651;52.262;10.498;2023-05-07T00:26:52;26.77;;;18.17;;
30970;SDS011;17651;52.262;10.498;2023-05-07T00:29:03;29.88;;;18.40;;
30970;SDS011;17651;52.262;10.498;2023-05-07T00:31:14;25.63;;;17.20;;
30970;SDS011;17651;52.262;10.498;2023-05-07T00:33:25;24.40;;;16.85;;
30970;SDS011;17651;52.262;10.498;2023-05-07T00:35:37;26.50;;;17.05;;
30970;SDS011;17651;52.262;10.498;2023-05-07T00:37:48;25.38;;;17.08;;
30970;SDS011;17651;52.262;10.498;2023-05-07T00:39:59;23.77;;;16.33;;
30970;SDS011;17651;52.262;10.498;2023-05-07T00:42:13;23.50;;;16.20;;
30970;SDS011;17651;52.262;10.498;2023-05-07T00:44:26;22.08;;;15.32;;
30970;SDS011;17651;52.262;10.498;2023-05-07T00:46:38;22.00;;;15.18;;
30970;SDS011;17651;52.262;10.498;2023-05-07T00:48:50;21.92;;;15.00;;
30970;SDS011;17651;52.262;10.498;2023-05-07T00:51:01;18.48;;;13.18;;
30970;SDS011;17651;52.262;10.498;2023-05-07T00:53:12;19.60;;;13.40;;
30970;SDS011;17651;52.262;10.498;2023-05-07T00:55:24;20.77;;;13.55;;
30970;SDS011;17651;52.262;10.498;2023-05-07T00:57:36;19.20;;;12.88;;
30970;SDS011;17651;52.262;10.498;2023-05-07T00:59:48;19.23;;;13.50;;
30970;SDS011;17651;52.262;10.498;2023-05-07T01:01:59;20.40;;;12.90;;
30970;SDS011;17651;52.262;10.498;2023-05-07T01:04:10;20.08;;;14.13;;
30970;SDS011;17651;52.262;10.498;2023-05-07T01:06:21;19.85;;;13.73;;
30970;SDS011;17651;52.262;10.498;2023-05-07T01:08:34;20.80;;;14.18;;
30970;SDS011;17651;52.262;10.498;2023-05-07T01:10:45;20.02;;;13.15;;
30970;SDS011;17651;52.262;10.498;2023-05-07T01:12:57;22.50;;;14.27;;
30970;SDS011;17651;52.262;10.498;2023-05-07T01:15:10;20.58;;;13.55;;
30970;SDS011;17651;52.262;10.498;2023-05-07T01:17:21;19.92;;;13.90;;
30970;SDS011;17651;52.262;10.498;2023-05-07T01:19:32;22.02;;;12.85;;
30970;SDS011;17651;52.262;10.498;2023-05-07T01:21:48;18.65;;;13.52;;
30970;SDS011;17651;52.262;10.498;2023-05-07T01:24:01;16.25;;;12.25;;
30970;SDS011;17651;52.262;10.498;2023-05-07T01:26:14;17.38;;;12.23;;
30970;SDS011;17651;52.262;10.498;2023-05-07T01:28:29;16.67;;;11.73;;
30970;SDS011;17651;52.262;10.498;2023-05-07T01:30:43;15.30;;;10.73;;
30970;SDS011;17651;52.262;10.498;2023-05-07T01:33:01;16.90;;;11.70;;
30970;SDS011;17651;52.262;10.498;2023-05-07T01:35:15;17.55;;;10.77;;
30970;SDS011;17651;52.262;10.498;2023-05-07T01:37:27;15.88;;;11.32;;
30970;SDS011;17651;52.262;10.498;2023-05-07T01:39:39;15.68;;;11.30;;
30970;SDS011;17651;52.262;10.498;2023-05-07T01:41:50;17.55;;;11.45;;
30970;SDS011;17651;52.262;10.498;2023-05-07T01:44:01;17.73;;;12.80;;
30970;SDS011;17651;52.262;10.498;2023-05-07T01:46:14;15.88;;;12.00;;
30970;SDS011;17651;52.262;10.498;2023-05-07T01:48:26;18.48;;;12.38;;
30970;SDS011;17651;52.262;10.498;2023-05-07T01:50:37;19.85;;;13.48;;
30970;SDS011;17651;52.262;10.498;2023-05-07T01:52:49;19.17;;;13.45;;
30970;SDS011;17651;52.262;10.498;2023-05-07T01:55:01;21.45;;;14.00;;
30970;SDS011;17651;52.262;10.498;2023-05-07T01:57:12;19.75;;;13.60;;
30970;SDS011;17651;52.262;10.498;2023-05-07T01:59:23;16.40;;;12.07;;
30970;SDS011;17651;52.262;10.498;2023-05-07T02:01:35;17.73;;;12.18;;
30970;SDS011;17651;52.262;10.498;2023-05-07T02:03:46;17.58;;;12.00;;
30970;SDS011;17651;52.262;10.498;2023-05-07T02:06:05;15.88;;;11.25;;
30970;SDS011;17651;52.262;10.498;2023-05-07T02:08:19;14.98;;;10.80;;
30970;SDS011;17651;52.262;10.498;2023-05-07T02:10:30;17.80;;;12.48;;
30970;SDS011;17651;52.262;10.498;2023-05-07T02:12:42;14.07;;;11.10;;
30970;SDS011;17651;52.262;10.498;2023-05-07T02:14:53;18.08;;;11.57;;
30970;SDS011;17651;52.262;10.498;2023-05-07T02:17:05;14.57;;;10.25;;
30970;SDS011;17651;52.262;10.498;2023-05-07T02:19:16;13.57;;;10.38;;
30970;SDS011;17651;52.262;10.498;2023-05-07T02:21:28;13.35;;;9.15;;
30970;SDS011;17651;52.262;10.498;2023-05-07T02:23:39;13.70;;;9.65;;
30970;SDS011;17651;52.262;10.498;2023-05-07T02:25:50;15.20;;;10.38;;
30970;SDS011;17651;52.262;10.498;2023-05-07T02:28:02;16.45;;;9.60;;
30970;SDS011;17651;52.262;10.498;2023-05-07T02:30:34;14.80;;;10.10;;
30970;SDS011;17651;52.262;10.498;2023-05-07T02:32:45;12.80;;;10.05;;
30970;SDS011;17651;52.262;10.498;2023-05-07T02:34:56;13.73;;;9.63;;
30970;SDS011;17651;52.262;10.498;2023-05-07T02:37:07;14.73;;;10.77;;
30970;SDS011;17651;52.262;10.498;2023-05-07T02:39:19;16.35;;;12.02;;
30970;SDS011;17651;52.262;10.498;2023-05-07T02:41:30;13.45;;;10.73;;
30970;SDS011;17651;52.262;10.498;2023-05-07T02:43:42;15.98;;;10.85;;
30970;SDS011;17651;52.262;10.498;2023-05-07T02:46:00;15.57;;;10.68;;
30970;SDS011;17651;52.262;10.498;2023-05-07T02:48:12;18.70;;;11.93;;
30970;SDS011;17651;52.262;10.498;2023-05-07T02:50:23;16.08;;;11.35;;
30970;SDS011;17651;52.262;10.498;2023-05-07T02:52:36;13.98;;;10.80;;
30970;SDS011;17651;52.262;10.498;2023-05-07T02:54:47;15.32;;;10.25;;
30970;SDS011;17651;52.262;10.498;2023-05-07T02:56:58;16.52;;;10.98;;
30970;SDS011;17651;52.262;10.498;2023-05-07T02:59:11;15.68;;;10.73;;
30970;SDS011;17651;52.262;10.498;2023-05-07T03:01:25;14.77;;;9.95;;
30970;SDS011;17651;52.262;10.498;2023-05-07T03:03:43;16.30;;;11.18;;
30970;SDS011;17651;52.262;10.498;2023-05-07T03:05:54;12.52;;;10.25;;
30970;SDS011;17651;52.262;10.498;2023-05-07T03:08:06;13.05;;;9.85;;
30970;SDS011;17651;52.262;10.498;2023-05-07T03:10:17;12.70;;;9.68;;
30970;SDS011;17651;52.262;10.498;2023-05-07T03:12:29;13.07;;;10.20;;
30970;SDS011;17651;52.262;10.498;2023-05-07T03:14:40;14.85;;;10.43;;
30970;SDS011;17651;52.262;10.498;2023-05-07T03:16:51;18.42;;;11.20;;
30970;SDS011;17651;52.262;10.498;2023-05-07T03:19:02;13.20;;;10.32;;
30970;SDS011;17651;52.262;10.498;2023-05-07T03:21:13;14.07;;;11.00;;
30970;SDS011;17651;52.262;10.498;2023-05-07T03:23:25;13.25;;;9.55;;
30970;SDS011;17651;52.262;10.498;2023-05-07T03:25:36;13.88;;;10.85;;
30970;SDS011;17651;52.262;10.498;2023-05-07T03:27:47;16.48;;;11.90;;
30970;SDS011;17651;52.262;10.498;2023-05-07T03:30:01;15.93;;;12.27;;
30970;SDS011;17651;52.262;10.498;2023-05-07T03:32:12;14.70;;;10.57;;
30970;SDS011;17651;52.262;10.498;2023-05-07T03:34:23;16.60;;;10.93;;
30970;SDS011;17651;52.262;10.498;2023-05-07T03:36:35;15.13;;;11.38;;
30970;SDS011;17651;52.262;10.498;2023-05-07T03:38:48;14.65;;;10.40;;
30970;SDS011;17651;52.262;10.498;2023-05-07T03:41:03;14.45;;;10.80;;
30970;SDS011;17651;52.262;10.498;2023-05-07T03:43:14;13.13;;;9.82;;
30970;SDS011;17651;52.262;10.498;2023-05-07T03:45:30;11.27;;;8.80;;
30970;SDS011;17651;52.262;10.498;2023-05-07T03:47:52;10.20;;;8.65;;
30970;SDS011;17651;52.262;10.498;2023-05-07T03:50:05;13.30;;;9.85;;
30970;SDS011;17651;52.262;10.498;2023-05-07T03:52:16;12.52;;;9.48;;
30970;SDS011;17651;52.262;10.498;2023-05-07T03:54:32;12.10;;;9.40;;
30970;SDS011;17651;52.262;10.498;2023-05-07T03:56:43;10.70;;;8.43;;
30970;SDS011;17651;52.262;10.498;2023-05-07T03:58:54;10.95;;;8.98;;
30970;SDS011;17651;52.262;10.498;2023-05-07T04:01:06;13.13;;;8.70;;
30970;SDS011;17651;52.262;10.498;2023-05-07T04:03:17;12.32;;;9.20;;
30970;SDS011;17651;52.262;10.498;2023-05-07T04:05:28;10.93;;;8.55;;
30970;SDS011;17651;52.262;10.498;2023-05-07T04:07:44;10.02;;;8.77;;
30970;SDS011;17651;52.262;10.498;2023-05-07T04:09:57;12.23;;;9.52;;
30970;SDS011;17651;52.262;10.498;2023-05-07T04:12:08;10.55;;;8.43;;
30970;SDS011;17651;52.262;10.498;2023-05-07T04:14:20;10.77;;;8.80;;
30970;SDS011;17651;52.262;10.498;2023-05-07T04:16:31;10.25;;;8.52;;
30970;SDS011;17651;52.262;10.498;2023-05-07T04:18:42;10.88;;;9.15;;
30970;SDS011;17651;52.262;10.498;2023-05-07T04:20:54;9.88;;;8.00;;
30970;SDS011;17651;52.262;10.498;2023-05-07T04:23:05;12.23;;;8.93;;
30970;SDS011;17651;52.262;10.498;2023-05-07T04:25:17;11.18;;;9.02;;
30970;SDS011;17651;52.262;10.498;2023-05-07T04:27:29;10.90;;;9.07;;
30970;SDS011;17651;52.262;10.498;2023-05-07T04:29:40;10.57;;;8.75;;
30970;SDS011;17651;52.262;10.498;2023-05-07T04:31:55;10.48;;;8.68;;
30970;SDS011;17651;52.262;10.498;2023-05-07T04:34:06;10.02;;;8.25;;
30970;SDS011;17651;52.262;10.498;2023-05-07T04:36:17;11.10;;;9.13;;
30970;SDS011;17651;52.262;10.498;2023-05-07T04:38:37;11.27;;;8.88;;
30970;SDS011;17651;52.262;10.498;2023-05-07T04:40:49;11.10;;;8.73;;
30970;SDS011;17651;52.262;10.498;2023-05-07T04:43:04;11.40;;;9.48;;
30970;SDS011;17651;52.262;10.498;2023-05-07T04:45:20;14.25;;;9.98;;
30970;SDS011;17651;52.262;10.498;2023-05-07T04:47:32;11.27;;;8.98;;
30970;SDS011;17651;52.262;10.498;2023-05-07T04:49:46;11.40;;;9.70;;
30970;SDS011;17651;52.262;10.498;2023-05-07T04:51:57;11.88;;;9.63;;
30970;SDS011;17651;52.262;10.498;2023-05-07T04:54:08;13.43;;;10.23;;
30970;SDS011;17651;52.262;10.498;2023-05-07T04:56:20;12.93;;;9.80;;
30970;SDS011;17651;52.262;10.498;2023-05-07T04:58:31;13.10;;;9.98;;
30970;SDS011;17651;52.262;10.498;2023-05-07T05:00:42;11.02;;;9.10;;
30970;SDS011;17651;52.262;10.498;2023-05-07T05:02:54;13.07;;;9.55;;
30970;SDS011;17651;52.262;10.498;2023-05-07T05:05:06;11.57;;;9.95;;
30970;SDS011;17651;52.262;10.498;2023-05-07T05:07:18;12.18;;;9.65;;
30970;SDS011;17651;52.262;10.498;2023-05-07T05:09:29;11.73;;;9.30;;
30970;SDS011;17651;52.262;10.498;2023-05-07T05:11:40;10.60;;;8.60;;
30970;SDS011;17651;52.262;10.498;2023-05-07T05:13:51;10.18;;;8.27;;
30970;SDS011;17651;52.262;10.498;2023-05-07T05:16:04;11.10;;;8.68;;
30970;SDS011;17651;52.262;10.498;2023-05-07T05:18:16;11.18;;;8.75;;
30970;SDS011;17651;52.262;10.498;2023-05-07T05:20:27;10.23;;;8.32;;
30970;SDS011;17651;52.262;10.498;2023-05-07T05:22:38;11.40;;;9.43;;
30970;SDS011;17651;52.262;10.498;2023-05-07T05:24:50;10.90;;;8.98;;
30970;SDS011;17651;52.262;10.498;2023-05-07T05:27:02;12.45;;;9.40;;
30970;SDS011;17651;52.262;10.498;2023-05-07T05:29:15;12.75;;;9.55;;
30970;SDS011;17651;52.262;10.498;2023-05-07T05:31:26;12.32;;;9.60;;
30970;SDS011;17651;52.262;10.498;2023-05-07T05:33:37;11.85;;;9.80;;
30970;SDS011;17651;52.262;10.498;2023-05-07T05:35:49;12.13;;;10.13;;
30970;SDS011;17651;52.262;10.498;2023-05-07T05:38:01;13.02;;;10.15;;
30970;SDS011;17651;52.262;10.498;2023-05-07T05:40:12;14.20;;;11.50;;
30970;SDS011;17651;52.262;10.498;2023-05-07T05:42:23;16.35;;;11.55;;
30970;SDS011;17651;52.262;10.498;2023-05-07T05:44:34;16.02;;;11.75;;
30970;SDS011;17651;52.262;10.498;2023-05-07T05:46:46;15.50;;;11.25;;
30970;SDS011;17651;52.262;10.498;2023-05-07T05:48:57;14.77;;;11.05;;
30970;SDS011;17651;52.262;10.498;2023-05-07T05:51:09;17.02;;;11.75;;
30970;SDS011;17651;52.262;10.498;2023-05-07T05:53:20;14.70;;;11.90;;
30970;SDS011;17651;52.262;10.498;2023-05-07T05:55:31;16.38;;;12.50;;
30970;SDS011;17651;52.262;10.498;2023-05-07T05:57:43;14.75;;;11.68;;
30970;SDS011;17651;52.262;10.498;2023-05-07T05:59:54;17.95;;;13.93;;
30970;SDS011;17651;52.262;10.498;2023-05-07T06:02:05;15.10;;;11.98;;
30970;SDS011;17651;52.262;10.498;2023-05-07T06:04:17;15.52;;;12.90;;
30970;SDS011;17651;52.262;10.498;2023-05-07T06:06:28;15.82;;;12.60;;
30970;SDS011;17651;52.262;10.498;2023-05-07T06:08:41;14.32;;;12.43;;
30970;SDS011;17651;52.262;10.498;2023-05-07T06:10:54;16.02;;;11.88;;
30970;SDS011;17651;52.262;10.498;2023-05-07T06:13:05;14.48;;;11.85;;
30970;SDS011;17651;52.262;10.498;2023-05-07T06:15:18;12.95;;;10.50;;
30970;SDS011;17651;52.262;10.498;2023-05-07T06:17:30;12.13;;;10.65;;
30970;SDS011;17651;52.262;10.498;2023-05-07T06:19:41;12.52;;;10.80;;
30970;SDS011;17651;52.262;10.498;2023-05-07T06:21:53;13.82;;;10.65;;
30970;SDS011;17651;52.262;10.498;2023-05-07T06:24:07;12.82;;;9.60;;
30970;SDS011;17651;52.262;10.498;2023-05-07T06:26:19;10.77;;;9.30;;
30970;SDS011;17651;52.262;10.498;2023-05-07T06:28:32;10.82;;;9.73;;
30970;SDS011;17651;52.262;10.498;2023-05-07T06:30:48;10.55;;;8.98;;
30970;SDS011;17651;52.262;10.498;2023-05-07T06:33:01;11.70;;;9.93;;
30970;SDS011;17651;52.262;10.498;2023-05-07T06:35:12;13.68;;;9.93;;
30970;SDS011;17651;52.262;10.498;2023-05-07T06:37:24;10.43;;;8.80;;
30970;SDS011;17651;52.262;10.498;2023-05-07T06:39:39;8.10;;;7.25;;
30970;SDS011;17651;52.262;10.498;2023-05-07T06:41:51;9.60;;;8.40;;
30970;SDS011;17651;52.262;10.498;2023-05-07T06:44:09;9.73;;;7.88;;
30970;SDS011;17651;52.262;10.498;2023-05-07T06:46:25;9.80;;;8.50;;
30970;SDS011;17651;52.262;10.498;2023-05-07T06:48:36;9.77;;;8.60;;
30970;SDS011;17651;52.262;10.498;2023-05-07T06:50:49;10.77;;;8.55;;
30970;SDS011;17651;52.262;10.498;2023-05-07T06:53:02;9.05;;;7.95;;
30970;SDS011;17651;52.262;10.498;2023-05-07T06:55:13;8.45;;;7.22;;
30970;SDS011;17651;52.262;10.498;2023-05-07T06:57:24;8.32;;;7.47;;
30970;SDS011;17651;52.262;10.498;2023-05-07T06:59:36;7.90;;;6.53;;
30970;SDS011;17651;52.262;10.498;2023-05-07T07:01:47;9.20;;;7.20;;
30970;SDS011;17651;52.262;10.498;2023-05-07T07:03:58;7.70;;;6.85;;
30970;SDS011;17651;52.262;10.498;2023-05-07T07:06:11;8.07;;;6.95;;
30970;SDS011;17651;52.262;10.498;2023-05-07T07:08:22;6.95;;;6.25;;
30970;SDS011;17651;52.262;10.498;2023-05-07T07:10:34;8.05;;;6.53;;
30970;SDS011;17651;52.262;10.498;2023-05-07T07:12:46;8.13;;;6.78;;
30970;SDS011;17651;52.262;10.498;2023-05-07T07:14:58;8.68;;;7.18;;
30970;SDS011;17651;52.262;10.498;2023-05-07T07:17:10;7.90;;;7.10;;
30970;SDS011;17651;52.262;10.498;2023-05-07T07:19:21;7.85;;;7.05;;
30970;SDS011;17651;52.262;10.498;2023-05-07T07:21:37;8.10;;;7.30;;
30970;SDS011;17651;52.262;10.498;2023-05-07T07:23:48;10.02;;;7.80;;
30970;SDS011;17651;52.262;10.498;2023-05-07T07:25:59;10.13;;;7.63;;
30970;SDS011;17651;52.262;10.498;2023-05-07T07:28:11;10.50;;;7.93;;
30970;SDS011;17651;52.262;10.498;2023-05-07T07:30:22;10.98;;;8.85;;
30970;SDS011;17651;52.262;10.498;2023-05-07T07:32:34;11.10;;;9.27;;
30970;SDS011;17651;52.262;10.498;2023-05-07T07:34:45;9.70;;;8.02;;
30970;SDS011;17651;52.262;10.498;2023-05-07T07:36:57;12.48;;;9.10;;
30970;SDS011;17651;52.262;10.498;2023-05-07T07:39:09;11.52;;;9.88;;
30970;SDS011;17651;52.262;10.498;2023-05-07T07:41:21;12.25;;;8.45;;
30970;SDS011;17651;52.262;10.498;2023-05-07T07:43:33;9.93;;;7.97;;
30970;SDS011;17651;52.262;10.498;2023-05-07T07:45:45;11.90;;;8.38;;
30970;SDS011;17651;52.262;10.498;2023-05-07T07:47:56;11.32;;;8.40;;
30970;SDS011;17651;52.262;10.498;2023-05-07T07:50:08;10.52;;;8.20;;
30970;SDS011;17651;52.262;10.498;2023-05-07T07:52:19;11.25;;;8.13;;
30970;SDS011;17651;52.262;10.498;2023-05-07T07:54:30;11.48;;;7.97;;
30970;SDS011;17651;52.262;10.498;2023-05-07T07:56:42;10.55;;;8.50;;
30970;SDS011;17651;52.262;10.498;2023-05-07T07:58:54;11.50;;;8.93;;
30970;SDS011;17651;52.262;10.498;2023-05-07T08:01:07;9.45;;;8.23;;
30970;SDS011;17651;52.262;10.498;2023-05-07T08:03:18;11.75;;;9.05;;
30970;SDS011;17651;52.262;10.498;2023-05-07T08:05:34;11.50;;;9.23;;
30970;SDS011;17651;52.262;10.498;2023-05-07T08:07:48;10.18;;;9.13;;
30970;SDS011;17651;52.262;10.498;2023-05-07T08:10:05;12.05;;;10.20;;
30970;SDS011;17651;52.262;10.498;2023-05-07T08:12:18;10.68;;;9.25;;
30970;SDS011;17651;52.262;10.498;2023-05-07T08:14:29;11.18;;;8.88;;
30970;SDS011;17651;52.262;10.498;2023-05-07T08:16:40;11.52;;;9.48;;
30970;SDS011;17651;52.262;10.498;2023-05-07T08:18:51;11.65;;;9.48;;
30970;SDS011;17651;52.262;10.498;2023-05-07T08:21:03;12.50;;;9.90;;
30970;SDS011;17651;52.262;10.498;2023-05-07T08:23:15;12.25;;;9.95;;
30970;SDS011;17651;52.262;10.498;2023-05-07T08:25:28;14.30;;;11.05;;
30970;SDS011;17651;52.262;10.498;2023-05-07T08:27:39;15.23;;;10.90;;
30970;SDS011;17651;52.262;10.498;2023-05-07T08:29:50;16.38;;;12.05;;
30970;SDS011;17651;52.262;10.498;2023-05-07T08:32:04;12.10;;;10.80;;
30970;SDS011;17651;52.262;10.498;2023-05-07T08:34:15;13.88;;;11.50;;
30970;SDS011;17651;52.262;10.498;2023-05-07T08:36:29;16.63;;;13.10;;
30970;SDS011;17651;52.262;10.498;2023-05-07T08:38:41;16.45;;;12.60;;
30970;SDS011;17651;52.262;10.498;2023-05-07T08:40:54;15.88;;;12.68;;
30970;SDS011;17651;52.262;10.498;2023-05-07T08:43:05;14.02;;;12.00;;
30970;SDS011;17651;52.262;10.498;2023-05-07T08:45:17;14.18;;;11.35;;
30970;SDS011;17651;52.262;10.498;2023-05-07T08:47:33;15.32;;;11.98;;
30970;SDS011;17651;52.262;10.498;2023-05-07T08:49:46;15.40;;;12.25;;
30970;SDS011;17651;52.262;10.498;2023-05-07T08:51:58;14.43;;;12.07;;
30970;SDS011;17651;52.262;10.498;2023-05-07T08:54:10;13.95;;;11.88;;
30970;SDS011;17651;52.262;10.498;2023-05-07T08:56:22;13.85;;;11.60;;
30970;SDS011;17651;52.262;10.498;2023-05-07T08:58:36;14.38;;;11.95;;
30970;SDS011;17651;52.262;10.498;2023-05-07T09:00:47;13.35;;;11.00;;
30970;SDS011;17651;52.262;10.498;2023-05-07T09:02:59;13.65;;;11.75;;
30970;SDS011;17651;52.262;10.498;2023-05-07T09:05:11;12.65;;;10.65;;
30970;SDS011;17651;52.262;10.498;2023-05-07T09:07:22;13.13;;;9.82;;
30970;SDS011;17651;52.262;10.498;2023-05-07T09:09:34;13.60;;;10.30;;
30970;SDS011;17651;52.262;10.498;2023-05-07T09:11:47;10.73;;;9.57;;
30970;SDS011;17651;52.262;10.498;2023-05-07T09:14:02;12.93;;;10.30;;
30970;SDS011;17651;52.262;10.498;2023-05-07T09:16:20;12.93;;;10.57;;
30970;SDS011;17651;52.262;10.498;2023-05-07T09:18:32;11.05;;;8.68;;
30970;SDS011;17651;52.262;10.498;2023-05-07T09:20:43;10.70;;;9.23;;
30970;SDS011;17651;52.262;10.498;2023-05-07T09:22:55;13.02;;;9.38;;
30970;SDS011;17651;52.262;10.498;2023-05-07T09:25:08;11.25;;;9.95;;
30970;SDS011;17651;52.262;10.498;2023-05-07T09:27:21;11.25;;;8.93;;
30970;SDS011;17651;52.262;10.498;2023-05-07T09:29:32;11.93;;;9.40;;
30970;SDS011;17651;52.262;10.498;2023-05-07T09:31:47;12.90;;;8.93;;
30970;SDS011;17651;52.262;10.498;2023-05-07T09:34:00;12.68;;;9.68;;
30970;SDS011;17651;52.262;10.498;2023-05-07T09:36:14;11.75;;;9.57;;
30970;SDS011;17651;52.262;10.498;2023-05-07T09:38:25;16.77;;;12.73;;
30970;SDS011;17651;52.262;10.498;2023-05-07T09:40:41;12.68;;;8.98;;
30970;SDS011;17651;52.262;10.498;2023-05-07T09:43:01;8.90;;;7.82;;
30970;SDS011;17651;52.262;10.498;2023-05-07T09:45:22;8.77;;;7.40;;
30970;SDS011;17651;52.262;10.498;2023-05-07T09:47:33;9.77;;;8.30;;
30970;SDS011;17651;52.262;10.498;2023-05-07T09:49:48;9.50;;;8.15;;
30970;SDS011;17651;52.262;10.498;2023-05-07T09:52:04;10.23;;;8.20;;
30970;SDS011;17651;52.262;10.498;2023-05-07T09:54:23;9.88;;;7.72;;
30970;SDS011;17651;52.262;10.498;2023-05-07T09:56:37;10.25;;;8.30;;
30970;SDS011;17651;52.262;10.498;2023-05-07T09:58:49;8.73;;;7.93;;
30970;SDS011;17651;52.262;10.498;2023-05-07T10:01:03;10.30;;;7.78;;
30970;SDS011;17651;52.262;10.498;2023-05-07T10:03:15;10.60;;;8.02;;
30970;SDS011;17651;52.262;10.498;2023-05-07T10:05:37;8.38;;;7.55;;
30970;SDS011;17651;52.262;10.498;2023-05-07T10:07:49;12.75;;;9.80;;
30970;SDS011;17651;52.262;10.498;2023-05-07T10:10:01;10.57;;;8.27;;
30970;SDS011;17651;52.262;10.498;2023-05-07T10:12:20;9.93;;;8.50;;
30970;SDS011;17651;52.262;10.498;2023-05-07T10:14:32;9.30;;;7.50;;
30970;SDS011;17651;52.262;10.498;2023-05-07T10:16:44;7.35;;;6.65;;
30970;SDS011;17651;52.262;10.498;2023-05-07T10:18:59;7.80;;;7.00;;
30970;SDS011;17651;52.262;10.498;2023-05-07T10:21:19;8.77;;;6.97;;
30970;SDS011;17651;52.262;10.498;2023-05-07T10:23:32;7.65;;;6.57;;
30970;SDS011;17651;52.262;10.498;2023-05-07T10:25:44;8.82;;;6.28;;
30970;SDS011;17651;52.262;10.498;2023-05-07T10:28:06;9.00;;;6.78;;
30970;SDS011;17651;52.262;10.498;2023-05-07T10:32:47;7.20;;;6.50;;
30970;SDS011;17651;52.262;10.498;2023-05-07T10:35:14;8.07;;;7.25;;
30970;SDS011;17651;52.262;10.498;2023-05-07T10:37:26;6.93;;;6.22;;
30970;SDS011;17651;52.262;10.498;2023-05-07T10:39:39;8.88;;;6.90;;
30970;SDS011;17651;52.262;10.498;2023-05-07T10:41:51;8.45;;;6.75;;
30970;SDS011;17651;52.262;10.498;2023-05-07T10:44:02;8.73;;;7.78;;
30970;SDS011;17651;52.262;10.498;2023-05-07T10:46:17;9.40;;;7.57;;
30970;SDS011;17651;52.262;10.498;2023-05-07T10:48:35;8.48;;;7.22;;
30970;SDS011;17651;52.262;10.498;2023-05-07T10:51:19;8.73;;;7.43;;
30970;SDS011;17651;52.262;10.498;2023-05-07T10:53:40;8.70;;;6.80;;
30970;SDS011;17651;52.262;10.498;2023-05-07T10:56:41;7.75;;;6.35;;
30970;SDS011;17651;52.262;10.498;2023-05-07T10:58:44;7.63;;;6.47;;
30970;SDS011;17651;52.262;10.498;2023-05-07T11:01:03;6.70;;;6.00;;
30970;SDS011;17651;52.262;10.498;2023-05-07T11:03:20;7.30;;;6.13;;
30970;SDS011;17651;52.262;10.498;2023-05-07T11:05:38;8.63;;;7.55;;
30970;SDS011;17651;52.262;10.498;2023-05-07T11:08:00;8.40;;;6.15;;
30970;SDS011;17651;52.262;10.498;2023-05-07T11:10:17;20.67;;;8.82;;
30970;SDS011;17651;52.262;10.498;2023-05-07T11:14:59;8.00;;;5.78;;
30970;SDS011;17651;52.262;10.498;2023-05-07T11:17:16;7.10;;;5.88;;
30970;SDS011;17651;52.262;10.498;2023-05-07T11:25:06;4.95;;;4.50;;
30970;SDS011;17651;52.262;10.498;2023-05-07T11:27:22;6.82;;;5.13;;
30970;SDS011;17651;52.262;10.498;2023-05-07T11:29:35;5.97;;;5.18;;
30970;SDS011;17651;52.262;10.498;2023-05-07T11:31:51;7.18;;;5.65;;
30970;SDS011;17651;52.262;10.498;2023-05-07T11:34:03;5.45;;;4.97;;
30970;SDS011;17651;52.262;10.498;2023-05-07T11:36:15;5.57;;;4.97;;
30970;SDS011;17651;52.262;10.498;2023-05-07T11:38:34;6.25;;;5.32;;
30970;SDS011;17651;52.262;10.498;2023-05-07T11:40:52;5.82;;;5.03;;
30970;SDS011;17651;52.262;10.498;2023-05-07T11:43:12;6.35;;;5.75;;
30970;SDS011;17651;52.262;10.498;2023-05-07T11:45:23;5.82;;;5.22;;
30970;SDS011;17651;52.262;10.498;2023-05-07T11:47:35;6.00;;;5.50;;
30970;SDS011;17651;52.262;10.498;2023-05-07T11:49:50;8.45;;;6.22;;
30970;SDS011;17651;52.262;10.498;2023-05-07T11:52:01;8.77;;;5.80;;
30970;SDS011;17651;52.262;10.498;2023-05-07T11:54:15;6.57;;;5.93;;
30970;SDS011;17651;52.262;10.498;2023-05-07T11:56:26;7.50;;;6.55;;
30970;SDS011;17651;52.262;10.498;2023-05-07T11:58:37;6.32;;;5.72;;
30970;SDS011;17651;52.262;10.498;2023-05-07T12:00:51;6.85;;;5.72;;
30970;SDS011;17651;52.262;10.498;2023-05-07T12:03:06;7.78;;;5.72;;
30970;SDS011;17651;52.262;10.498;2023-05-07T12:05:17;6.32;;;5.72;;
30970;SDS011;17651;52.262;10.498;2023-05-07T12:07:28;8.07;;;5.93;;
30970;SDS011;17651;52.262;10.498;2023-05-07T12:09:39;6.25;;;5.70;;
30970;SDS011;17651;52.262;10.498;2023-05-07T12:11:51;6.82;;;6.18;;
30970;SDS011;17651;52.262;10.498;2023-05-07T12:14:02;7.25;;;6.55;;
30970;SDS011;17651;52.262;10.498;2023-05-07T12:16:13;7.47;;;6.68;;
30970;SDS011;17651;52.262;10.498;2023-05-07T12:18:25;8.57;;;6.35;;
30970;SDS011;17651;52.262;10.498;2023-05-07T12:20:36;7.18;;;6.47;;
30970;SDS011;17651;52.262;10.498;2023-05-07T12:22:47;7.07;;;5.90;;
30970;SDS011;17651;52.262;10.498;2023-05-07T12:25:02;7.72;;;6.40;;
30970;SDS011;17651;52.262;10.498;2023-05-07T12:27:16;7.80;;;6.68;;
30970;SDS011;17651;52.262;10.498;2023-05-07T12:29:28;7.35;;;6.38;;
30970;SDS011;17651;52.262;10.498;2023-05-07T12:31:43;7.95;;;6.72;;
30970;SDS011;17651;52.262;10.498;2023-05-07T12:33:54;8.15;;;6.93;;
30970;SDS011;17651;52.262;10.498;2023-05-07T12:36:06;8.55;;;7.25;;
30970;SDS011;17651;52.262;10.498;2023-05-07T12:38:18;6.95;;;6.13;;
30970;SDS011;17651;52.262;10.498;2023-05-07T12:41:02;8.82;;;6.53;;
30970;SDS011;17651;52.262;10.498;2023-05-07T12:43:07;6.65;;;5.95;;
30970;SDS011;17651;52.262;10.498;2023-05-07T12:45:18;7.63;;;6.30;;
30970;SDS011;17651;52.262;10.498;2023-05-07T12:47:29;11.35;;;6.30;;
30970;SDS011;17651;52.262;10.498;2023-05-07T12:49:40;7.05;;;6.00;;
30970;SDS011;17651;52.262;10.498;2023-05-07T12:51:53;6.43;;;5.80;;
30970;SDS011;17651;52.262;10.498;2023-05-07T12:54:04;7.60;;;6.10;;
30970;SDS011;17651;52.262;10.498;2023-05-07T12:56:15;7.25;;;5.93;;
30970;SDS011;17651;52.262;10.498;2023-05-07T12:58:30;8.02;;;6.22;;
30970;SDS011;17651;52.262;10.498;2023-05-07T13:00:42;7.82;;;6.00;;
30970;SDS011;17651;52.262;10.498;2023-05-07T13:02:53;7.38;;;6.30;;
30970;SDS011;17651;52.262;10.498;2023-05-07T13:05:05;7.82;;;5.82;;
30970;SDS011;17651;52.262;10.498;2023-05-07T13:07:16;9.70;;;7.55;;